createdAt,value
2023-08-14T00:00:16.468Z,19.42
2023-08-14T00:03:37.995Z,19.37
2023-08-14T00:06:39.739Z,19.32
2023-08-14T00:09:41.461Z,19.24
2023-08-14T00:12:43.116Z,19.16
2023-08-14T00:15:45.140Z,19.12
2023-08-14T00:18:47.173Z,19.09
2023-08-14T00:21:48.848Z,19.05
2023-08-14T00:24:50.553Z,18.98
2023-08-14T00:27:52.277Z,18.90
2023-08-14T00:30:54.074Z,18.85
2023-08-14T00:33:56.080Z,18.77
2023-08-14T00:36:58.193Z,18.72
2023-08-14T00:40:00.157Z,18.66
2023-08-14T00:43:07.962Z,18.59
2023-08-14T00:46:09.655Z,18.45
2023-08-14T00:49:11.519Z,18.25
2023-08-14T00:52:14.542Z,18.10
2023-08-14T00:55:20.646Z,18.03
2023-08-14T00:58:23.508Z,17.93
2023-08-14T01:01:25.474Z,17.87
2023-08-14T01:04:27.081Z,17.81
2023-08-14T01:07:29.062Z,17.75
2023-08-14T01:10:58.205Z,17.68
2023-08-14T01:14:10.760Z,17.56
2023-08-14T01:17:15.326Z,17.47
2023-08-14T01:20:19.257Z,17.44
2023-08-14T01:23:45.677Z,17.40
2023-08-14T01:26:47.564Z,17.39
2023-08-14T01:29:59.376Z,17.41
2023-08-14T01:33:01.208Z,17.47
2023-08-14T01:36:13.968Z,17.52
2023-08-14T01:39:17.716Z,17.51
2023-08-14T01:42:26.765Z,17.49
2023-08-14T01:45:29.351Z,17.50
2023-08-14T01:48:31.118Z,17.45
2023-08-14T01:51:33.365Z,17.43
2023-08-14T01:54:35.333Z,17.40
2023-08-14T01:57:36.989Z,17.40
2023-08-14T02:00:38.703Z,17.42
2023-08-14T02:03:40.609Z,17.42
2023-08-14T02:06:42.543Z,17.42
2023-08-14T02:09:44.453Z,17.40
2023-08-14T02:12:46.148Z,17.41
2023-08-14T02:15:47.831Z,17.43
2023-08-14T02:18:49.478Z,17.47
2023-08-14T02:21:51.120Z,17.49
2023-08-14T02:24:53.676Z,17.51
2023-08-14T02:27:55.269Z,17.51
2023-08-14T02:30:56.918Z,17.50
2023-08-14T02:34:00.589Z,17.49
2023-08-14T02:37:02.515Z,17.53
2023-08-14T02:40:04.636Z,17.56
2023-08-14T02:43:06.724Z,17.58
2023-08-14T02:46:08.543Z,17.59
2023-08-14T02:49:10.322Z,17.62
2023-08-14T02:52:12.086Z,17.66
2023-08-14T02:55:13.775Z,17.69
2023-08-14T02:58:15.447Z,17.73
2023-08-14T03:01:17.173Z,17.77
2023-08-14T03:04:18.783Z,17.81
2023-08-14T03:07:20.532Z,17.82
2023-08-14T03:10:22.234Z,17.85
2023-08-14T03:13:24.054Z,17.90
2023-08-14T03:16:25.723Z,17.92
2023-08-14T03:19:27.610Z,17.94
2023-08-14T03:22:29.518Z,17.95
2023-08-14T03:25:31.222Z,17.97
2023-08-14T03:28:33.112Z,17.98
2023-08-14T03:31:35.270Z,18.02
2023-08-14T03:34:36.917Z,18.01
2023-08-14T03:37:38.702Z,18.01
2023-08-14T03:40:40.350Z,18.03
2023-08-14T03:43:42.435Z,18.06
2023-08-14T03:46:44.082Z,18.09
2023-08-14T03:49:46.324Z,18.11
2023-08-14T03:52:49.265Z,18.13
2023-08-14T03:55:50.846Z,18.16
2023-08-14T03:58:52.438Z,18.18
2023-08-14T04:01:54.141Z,18.20
2023-08-14T04:04:56.084Z,18.23
2023-08-14T04:07:57.732Z,18.23
2023-08-14T04:10:59.341Z,18.27
2023-08-14T04:14:01.006Z,18.31
2023-08-14T04:17:02.717Z,18.31
2023-08-14T04:20:08.384Z,18.35
2023-08-14T04:23:10.288Z,18.41
2023-08-14T04:26:11.911Z,18.48
2023-08-14T04:29:13.539Z,18.57
2023-08-14T04:32:15.206Z,18.68
2023-08-14T04:35:16.879Z,18.77
2023-08-14T04:38:18.549Z,18.88
2023-08-14T04:41:20.076Z,19.04
2023-08-14T04:44:21.734Z,19.19
2023-08-14T04:47:23.416Z,19.30
2023-08-14T04:50:26.229Z,19.32
2023-08-14T04:53:27.813Z,19.40
2023-08-14T04:56:29.379Z,19.53
2023-08-14T04:59:31.108Z,19.63
2023-08-14T05:02:32.801Z,19.69
2023-08-14T05:05:34.577Z,19.85
2023-08-14T05:08:36.311Z,20.11
2023-08-14T05:11:37.886Z,20.33
2023-08-14T05:14:39.503Z,20.28
2023-08-14T05:17:41.144Z,20.36
2023-08-14T05:20:44.119Z,20.85
2023-08-14T05:23:45.690Z,21.27
2023-08-14T05:26:47.316Z,21.55
2023-08-14T05:29:48.896Z,21.89
2023-08-14T05:32:50.567Z,22.38
2023-08-14T05:35:52.208Z,22.82
2023-08-14T05:38:53.839Z,23.19
2023-08-14T05:41:55.564Z,23.55
2023-08-14T05:44:57.150Z,23.95
2023-08-14T05:47:59.614Z,24.36
2023-08-14T05:51:01.334Z,24.63
2023-08-14T05:54:02.922Z,24.70
2023-08-14T05:57:05.484Z,24.70
2023-08-14T06:00:08.066Z,24.69
2023-08-14T06:03:09.906Z,24.75
2023-08-14T06:06:11.808Z,24.77
2023-08-14T06:09:13.546Z,24.90
2023-08-14T06:12:15.205Z,25.10
2023-08-14T06:15:18.209Z,25.38
2023-08-14T06:18:19.797Z,25.77
2023-08-14T06:21:21.435Z,25.98
2023-08-14T06:24:23.189Z,26.08
2023-08-14T06:27:24.879Z,26.29
2023-08-14T06:30:26.568Z,26.48
2023-08-14T06:33:28.245Z,26.51
2023-08-14T06:36:29.894Z,26.73
2023-08-14T06:39:32.026Z,26.99
2023-08-14T06:42:34.213Z,27.28
2023-08-14T06:45:35.932Z,27.61
2023-08-14T06:48:37.530Z,27.74
2023-08-14T06:51:39.901Z,27.89
2023-08-14T06:54:41.725Z,28.24
2023-08-14T06:57:43.458Z,28.24
2023-08-14T07:00:48.110Z,28.30
2023-08-14T07:03:49.838Z,28.31
2023-08-14T07:06:51.572Z,28.42
2023-08-14T07:09:53.181Z,28.82
2023-08-14T07:12:54.796Z,29.19
2023-08-14T07:15:56.448Z,29.34
2023-08-14T07:18:58.414Z,29.47
2023-08-14T07:22:00.046Z,29.54
2023-08-14T07:25:01.850Z,29.66
2023-08-14T07:28:03.762Z,29.67
2023-08-14T07:31:05.493Z,29.66
2023-08-14T07:34:07.127Z,29.84
2023-08-14T07:37:08.707Z,30.16
2023-08-14T07:40:11.126Z,30.42
2023-08-14T07:43:12.673Z,30.85
2023-08-14T07:46:14.324Z,31.00
2023-08-14T07:49:16.107Z,31.26
2023-08-14T07:52:18.012Z,31.70
2023-08-14T07:55:19.994Z,31.69
2023-08-14T07:58:21.617Z,31.57
2023-08-14T08:01:23.526Z,31.50
2023-08-14T08:04:27.135Z,31.43
2023-08-14T08:07:29.402Z,31.34
2023-08-14T08:10:31.138Z,31.36
2023-08-14T08:13:32.820Z,31.52
2023-08-14T08:16:35.307Z,31.80
2023-08-14T08:19:37.030Z,31.92
2023-08-14T08:22:38.767Z,32.15
2023-08-14T08:25:40.488Z,32.45
2023-08-14T08:28:42.123Z,32.53
2023-08-14T08:31:43.836Z,32.74
2023-08-14T08:34:45.608Z,33.37
2023-08-14T08:37:47.179Z,33.63
2023-08-14T08:40:50.840Z,33.78
2023-08-14T08:44:07.450Z,34.19
2023-08-14T08:47:11.474Z,34.77
2023-08-14T08:50:14.463Z,35.19
2023-08-14T08:53:19.387Z,35.11
2023-08-14T08:56:21.533Z,35.32
2023-08-14T08:59:23.980Z,35.72
2023-08-14T09:02:25.835Z,35.37
2023-08-14T09:05:27.623Z,35.13
2023-08-14T09:08:29.472Z,34.95
2023-08-14T09:11:31.767Z,34.82
2023-08-14T09:14:33.579Z,34.93
2023-08-14T09:17:35.321Z,34.93
2023-08-14T09:20:40.399Z,35.05
2023-08-14T09:23:43.179Z,35.19
2023-08-14T09:26:45.611Z,35.76
2023-08-14T09:29:47.457Z,36.05
2023-08-14T09:32:49.209Z,35.87
2023-08-14T09:35:54.008Z,36.25
2023-08-14T09:38:56.190Z,36.02
2023-08-14T09:41:58.021Z,35.84
2023-08-14T09:44:59.838Z,35.87
2023-08-14T09:48:01.940Z,35.90
2023-08-14T09:51:03.802Z,35.96
2023-08-14T09:54:09.119Z,36.16
2023-08-14T09:57:10.889Z,36.00
2023-08-14T10:00:13.229Z,35.99
2023-08-14T10:03:15.405Z,35.82
2023-08-14T10:06:17.763Z,35.96
2023-08-14T10:09:22.897Z,36.02
2023-08-14T10:12:32.574Z,36.11
2023-08-14T10:15:38.339Z,36.23
2023-08-14T10:18:40.970Z,36.33
2023-08-14T10:21:44.476Z,36.70
2023-08-14T10:24:46.858Z,36.51
2023-08-14T10:27:50.559Z,36.98
2023-08-14T10:30:52.507Z,37.32
2023-08-14T10:33:55.574Z,37.33
2023-08-14T10:36:57.471Z,37.07
2023-08-14T10:40:14.539Z,37.11
2023-08-14T10:43:16.334Z,37.19
2023-08-14T10:46:18.763Z,37.50
2023-08-14T10:49:20.527Z,37.73
2023-08-14T10:52:23.360Z,37.84
2023-08-14T10:55:45.211Z,38.20
2023-08-14T10:58:51.412Z,37.95
2023-08-14T11:02:04.868Z,37.76
2023-08-14T11:05:14.433Z,37.82
2023-08-14T11:08:16.884Z,37.94
2023-08-14T11:11:18.477Z,38.08
2023-08-14T11:14:20.266Z,38.01
2023-08-14T11:17:22.400Z,37.66
2023-08-14T11:20:29.872Z,37.52
2023-08-14T11:23:34.219Z,37.65
2023-08-14T11:26:35.808Z,37.86
2023-08-14T11:29:51.736Z,38.04
2023-08-14T11:32:55.286Z,38.41
2023-08-14T11:36:04.034Z,38.48
2023-08-14T11:39:13.213Z,38.06
2023-08-14T11:42:14.854Z,37.55
2023-08-14T11:45:16.622Z,37.51
2023-08-14T11:48:19.744Z,37.79
2023-08-14T11:51:21.758Z,37.71
2023-08-14T11:54:24.633Z,37.80
2023-08-14T11:57:30.433Z,38.04
2023-08-14T12:00:34.174Z,37.87
2023-08-14T12:03:36.918Z,37.71
2023-08-14T12:06:38.624Z,37.93
2023-08-14T12:09:40.342Z,38.03
2023-08-14T12:12:51.483Z,38.08
2023-08-14T12:15:57.001Z,37.96
2023-08-14T12:18:58.900Z,37.89
2023-08-14T12:22:03.718Z,37.90
2023-08-14T12:25:08.802Z,37.61
2023-08-14T12:28:10.417Z,37.30
2023-08-14T12:31:12.523Z,37.37
2023-08-14T12:34:14.213Z,37.57
2023-08-14T12:37:17.584Z,37.35
2023-08-14T12:40:19.610Z,37.46
2023-08-14T12:43:27.717Z,38.04
2023-08-14T12:46:32.590Z,38.28
2023-08-14T12:49:37.954Z,38.02
2023-08-14T12:52:39.860Z,37.35
2023-08-14T12:55:41.764Z,37.18
2023-08-14T12:58:48.220Z,37.24
2023-08-14T13:04:54.905Z,37.30
2023-08-14T13:07:59.464Z,37.59
2023-08-14T13:11:01.326Z,37.69
2023-08-14T13:14:03.179Z,37.38
2023-08-14T13:17:04.933Z,37.24
2023-08-14T13:20:07.500Z,37.10
2023-08-14T13:23:09.271Z,37.37
2023-08-14T13:26:25.522Z,37.78
2023-08-14T13:29:29.196Z,38.03
2023-08-14T13:32:30.841Z,38.08
2023-08-14T13:35:32.506Z,37.98
2023-08-14T13:38:34.074Z,37.96
2023-08-14T13:41:35.704Z,38.03
2023-08-14T13:44:37.521Z,38.27
2023-08-14T13:47:43.979Z,38.26
2023-08-14T13:50:55.456Z,38.29
2023-08-14T13:53:57.048Z,38.44
2023-08-14T13:56:58.640Z,38.72
2023-08-14T14:00:00.468Z,38.79
2023-08-14T14:03:05.617Z,38.70
2023-08-14T14:06:07.645Z,38.41
2023-08-14T14:09:09.379Z,37.71
2023-08-14T14:12:11.236Z,37.12
2023-08-14T14:15:12.923Z,36.98
2023-08-14T14:18:14.601Z,37.09
2023-08-14T14:21:16.259Z,37.34
2023-08-14T14:24:17.930Z,37.61
2023-08-14T14:27:19.816Z,37.58
2023-08-14T14:30:22.217Z,37.85
2023-08-14T14:33:23.822Z,38.11
2023-08-14T14:36:25.480Z,38.02
2023-08-14T14:39:27.190Z,38.17
2023-08-14T14:42:28.835Z,38.46
2023-08-14T14:45:34.822Z,38.60
2023-08-14T14:48:37.087Z,38.67
2023-08-14T14:51:38.678Z,38.54
2023-08-14T14:54:40.557Z,38.48
2023-08-14T14:57:42.189Z,38.48
2023-08-14T15:00:43.761Z,38.77
2023-08-14T15:03:45.549Z,38.69
2023-08-14T15:06:47.874Z,38.47
2023-08-14T15:09:49.537Z,38.62
2023-08-14T15:12:51.262Z,38.41
2023-08-14T15:15:53.026Z,38.12
2023-08-14T15:18:54.756Z,38.14
2023-08-14T15:21:56.380Z,37.79
2023-08-14T15:24:58.082Z,37.20
2023-08-14T15:28:00.115Z,36.39
2023-08-14T15:31:01.811Z,35.69
2023-08-14T15:34:03.525Z,35.20
2023-08-14T15:37:05.257Z,34.95
2023-08-14T15:40:07.693Z,34.74
2023-08-14T15:43:09.278Z,34.62
2023-08-14T15:46:10.951Z,34.47
2023-08-14T15:49:12.541Z,34.37
2023-08-14T15:52:18.326Z,34.27
2023-08-14T15:55:19.968Z,34.08
2023-08-14T15:58:21.725Z,33.83
2023-08-14T16:01:23.344Z,33.61
2023-08-14T16:04:25.130Z,33.37
2023-08-14T16:07:26.813Z,33.13
2023-08-14T16:10:28.414Z,32.98
2023-08-14T16:13:29.999Z,32.92
2023-08-14T16:16:31.853Z,32.87
2023-08-14T16:19:33.872Z,32.79
2023-08-14T16:22:35.609Z,32.82
2023-08-14T16:25:37.274Z,32.67
2023-08-14T16:28:38.876Z,32.49
2023-08-14T16:31:40.482Z,32.39
2023-08-14T16:34:42.105Z,32.36
2023-08-14T16:37:43.710Z,32.30
2023-08-14T16:40:46.133Z,32.10
2023-08-14T16:43:47.816Z,31.88
2023-08-14T16:46:49.460Z,31.72
2023-08-14T16:49:51.115Z,31.67
2023-08-14T16:52:52.742Z,31.65
2023-08-14T16:55:54.402Z,31.65
2023-08-14T16:58:55.993Z,31.59
2023-08-14T17:01:57.931Z,31.48
2023-08-14T17:04:59.635Z,31.33
2023-08-14T17:08:01.232Z,31.10
2023-08-14T17:11:05.663Z,30.90
2023-08-14T17:14:07.353Z,30.77
2023-08-14T17:17:08.992Z,30.54
2023-08-14T17:20:10.999Z,30.40
2023-08-14T17:23:12.604Z,30.36
2023-08-14T17:26:14.210Z,30.50
2023-08-14T17:29:15.863Z,31.01
2023-08-14T17:32:18.721Z,31.20
2023-08-14T17:35:20.315Z,30.84
2023-08-14T17:38:22.139Z,30.40
2023-08-14T17:41:23.690Z,30.08
2023-08-14T17:44:25.327Z,29.75
2023-08-14T17:47:27.019Z,29.46
2023-08-14T17:50:29.172Z,29.11
2023-08-14T17:53:30.776Z,28.75
2023-08-14T17:56:32.444Z,28.42
2023-08-14T17:59:34.215Z,28.11
2023-08-14T18:02:35.882Z,27.84
2023-08-14T18:05:37.595Z,27.57
2023-08-14T18:08:39.304Z,27.32
2023-08-14T18:11:41.509Z,27.10
2023-08-14T18:14:43.120Z,26.85
2023-08-14T18:17:44.762Z,26.61
2023-08-14T18:20:51.356Z,26.35
2023-08-14T18:23:53.045Z,26.11
2023-08-14T18:26:54.743Z,25.92
2023-08-14T18:29:56.429Z,25.78
2023-08-14T18:32:58.219Z,25.64
2023-08-14T18:36:00.004Z,25.49
2023-08-14T18:39:01.814Z,25.31
2023-08-14T18:42:03.944Z,25.14
2023-08-14T18:45:06.505Z,24.99
2023-08-14T18:48:08.795Z,24.84
2023-08-14T18:51:10.522Z,24.69
2023-08-14T18:54:12.582Z,24.53
2023-08-14T18:57:14.168Z,24.36
2023-08-14T19:00:15.995Z,24.26
2023-08-14T19:03:18.228Z,24.15
2023-08-14T19:06:19.812Z,24.07
2023-08-14T19:09:21.418Z,24.00
2023-08-14T19:12:23.184Z,23.94
2023-08-14T19:15:24.951Z,23.88
2023-08-14T19:18:27.467Z,23.82
2023-08-14T19:21:29.197Z,23.76
2023-08-14T19:24:30.879Z,23.69
2023-08-14T19:27:32.583Z,23.60
2023-08-14T19:30:37.517Z,23.49
2023-08-14T19:33:39.203Z,23.36
2023-08-14T19:36:40.784Z,23.25
2023-08-14T19:39:42.415Z,23.12
2023-08-14T19:42:43.983Z,22.99
2023-08-14T19:45:45.592Z,22.88
2023-08-14T19:48:47.120Z,22.78
2023-08-14T19:51:48.767Z,22.72
2023-08-14T19:54:50.430Z,22.68
2023-08-14T19:57:52.083Z,22.65
2023-08-14T20:01:01.064Z,22.61
2023-08-14T20:04:02.838Z,22.56
2023-08-14T20:07:04.586Z,22.52
2023-08-14T20:10:06.853Z,22.46
2023-08-14T20:13:09.182Z,22.41
2023-08-14T20:16:10.864Z,22.36
2023-08-14T20:19:12.745Z,22.30
2023-08-14T20:22:14.418Z,22.21
2023-08-14T20:25:16.276Z,22.14
2023-08-14T20:28:18.079Z,22.07
2023-08-14T20:31:22.465Z,21.99
2023-08-14T20:34:24.228Z,21.92
2023-08-14T20:37:26.007Z,21.83
2023-08-14T20:40:29.793Z,21.73
2023-08-14T20:43:32.844Z,21.63
2023-08-14T20:46:34.616Z,21.54
2023-08-14T20:49:36.474Z,21.47
2023-08-14T20:52:38.112Z,21.42
2023-08-14T20:55:42.850Z,21.39
2023-08-14T20:58:44.432Z,21.34
2023-08-14T21:01:46.069Z,21.26
2023-08-14T21:04:47.707Z,21.17
2023-08-14T21:07:49.322Z,21.10
2023-08-14T21:10:51.007Z,21.02
2023-08-14T21:13:52.888Z,20.93
2023-08-14T21:16:54.570Z,20.72
2023-08-14T21:19:56.383Z,20.49
2023-08-14T21:22:57.968Z,20.38
2023-08-14T21:25:59.683Z,20.30
2023-08-14T21:29:01.219Z,20.23
2023-08-14T21:32:02.974Z,20.21
2023-08-14T21:35:05.550Z,20.18
2023-08-14T21:38:07.673Z,20.15
2023-08-14T21:41:09.414Z,20.13
2023-08-14T21:44:11.223Z,20.14
2023-08-14T21:47:12.861Z,20.14
2023-08-14T21:50:14.608Z,20.11
2023-08-14T21:53:16.478Z,20.09
2023-08-14T21:56:18.164Z,20.02
2023-08-14T21:59:19.806Z,19.90
2023-08-14T22:02:21.457Z,19.70
2023-08-14T22:05:23.186Z,19.53
2023-08-14T22:08:24.887Z,19.32
2023-08-14T22:11:26.531Z,19.16
2023-08-14T22:14:28.250Z,19.12
2023-08-14T22:17:29.901Z,19.10
2023-08-14T22:20:31.620Z,19.06
2023-08-14T22:23:34.028Z,18.97
2023-08-14T22:26:35.705Z,18.92
2023-08-14T22:29:37.364Z,18.84
2023-08-14T22:32:39.598Z,18.80
2023-08-14T22:35:41.294Z,18.77
2023-08-14T22:38:42.900Z,18.66
2023-08-14T22:41:44.602Z,18.60
2023-08-14T22:44:46.440Z,18.61
2023-08-14T22:47:49.175Z,18.57
2023-08-14T22:50:51.864Z,18.55
2023-08-14T22:53:54.661Z,18.53
2023-08-14T22:56:56.214Z,18.51
2023-08-14T22:59:57.811Z,18.49
2023-08-14T23:02:59.560Z,18.42
2023-08-14T23:06:01.477Z,18.41
2023-08-14T23:09:03.533Z,18.40
2023-08-14T23:12:05.492Z,18.40
2023-08-14T23:15:07.612Z,18.39
2023-08-14T23:18:09.426Z,18.34
2023-08-14T23:21:11.151Z,18.28
2023-08-14T23:24:12.855Z,18.22
2023-08-14T23:27:14.475Z,18.17
2023-08-14T23:30:23.804Z,18.11
2023-08-14T23:33:25.758Z,18.05
2023-08-14T23:36:27.486Z,17.99
2023-08-14T23:39:29.144Z,17.97
2023-08-14T23:42:30.924Z,17.90
2023-08-14T23:45:32.667Z,17.86
2023-08-14T23:48:34.333Z,17.85
2023-08-14T23:51:36.008Z,17.84
2023-08-14T23:54:38.396Z,17.79
2023-08-14T23:57:40.107Z,17.76
